Time;durP1;ratioP1;P1;durP2;ratioP2;P2;SDS_P1;SDS_P2;PMS_P1;PMS_P2;Temp;Humidity;BMP_temperature;BMP_pressure;BME280_temperature;BME280_humidity;BME280_pressure;Samples;Min_cycle;Max_cycle;Signal;HPM_P1;HPM_P2
2024/04/09 00:01:53;;;;;;;26.67;3.63;;;;;;;23.99;29.05;96343.31;5478161;26;20321;-68
2024/04/09 00:04:19;;;;;;;24.37;3.27;;;;;;;23.86;30.12;96347.25;5481216;26;20246;-69
2024/04/09 00:06:45;;;;;;;18.10;4.20;;;;;;;23.88;30.52;96342.41;5449278;26;20295;-69
2024/04/09 00:09:11;;;;;;;18.53;3.40;;;;;;;23.94;29.65;96343.28;5466313;26;20246;-70
2024/04/09 00:11:36;;;;;;;27.93;3.27;;;;;;;23.97;28.44;96345.44;5455442;26;20270;-71
2024/04/09 00:14:04;;;;;;;23.37;3.90;;;;;;;23.98;28.31;96339.03;5479722;26;20270;-71
2024/04/09 00:16:33;;;;;;;27.30;3.47;;;;;;;24.00;27.04;96328.09;5452129;26;20610;-69
2024/04/09 00:18:59;;;;;;;16.07;4.20;;;;;;;23.83;29.45;96338.91;5460689;26;20471;-70
2024/04/09 00:21:25;;;;;;;30.03;4.10;;;;;;;23.79;30.06;96343.97;5467530;26;20499;-69
2024/04/09 00:23:51;;;;;;;17.73;3.77;;;;;;;23.80;28.66;96332.22;5473593;26;20250;-68
2024/04/09 00:26:17;;;;;;;18.03;3.63;;;;;;;23.80;28.98;96337.56;5480545;26;20487;-69
2024/04/09 00:28:42;;;;;;;19.30;3.80;;;;;;;23.68;29.29;96337.78;5455099;26;20282;-69
2024/04/09 00:31:08;;;;;;;21.63;3.80;;;;;;;23.65;29.75;96348.97;5466432;26;20587;-71
2024/04/09 00:33:33;;;;;;;18.00;4.33;;;;;;;23.70;28.85;96345.53;5454015;26;20247;-72
2024/04/09 00:35:59;;;;;;;24.57;4.13;;;;;;;23.70;28.91;96340.97;5475331;26;20266;-69
2024/04/09 00:38:27;;;;;;;16.97;3.50;;;;;;;23.56;29.44;96335.28;5481765;26;20326;-71
2024/04/09 00:40:53;;;;;;;16.30;3.43;;;;;;;23.58;29.37;96333.16;5466059;26;20264;-71
2024/04/09 00:43:18;;;;;;;13.63;3.43;;;;;;;23.43;29.32;96341.06;5470535;26;20996;-71
2024/04/09 00:45:44;;;;;;;16.20;3.40;;;;;;;23.31;29.92;96343.94;5476275;26;20949;-71
2024/04/09 00:48:11;;;;;;;19.37;3.40;;;;;;;23.17;28.83;96343.50;5449646;26;20350;-72
2024/04/09 00:50:41;;;;;;;27.37;3.97;;;;;;;23.24;28.59;96343.31;5472452;26;20567;-72
2024/04/09 00:53:08;;;;;;;22.00;3.93;;;;;;;23.35;28.41;96342.34;5457024;26;20485;-70
2024/04/09 00:55:33;;;;;;;20.50;3.57;;;;;;;23.38;29.58;96341.84;5460115;26;20455;-71
2024/04/09 00:58:00;;;;;;;25.57;3.60;;;;;;;23.34;30.39;96338.06;5479024;26;20455;-70
2024/04/09 01:00:27;;;;;;;15.87;3.13;;;;;;;23.37;30.13;96337.53;5466563;26;20261;-71
2024/04/09 01:02:53;;;;;;;15.33;3.50;;;;;;;23.35;28.74;96339.66;5472606;26;20469;-71
2024/04/09 01:05:18;;;;;;;13.73;3.03;;;;;;;23.30;30.37;96329.75;5474246;26;20510;-70
2024/04/09 01:07:44;;;;;;;17.77;3.57;;;;;;;23.29;30.54;96324.66;5477458;26;20261;-71
2024/04/09 01:10:10;;;;;;;22.03;3.20;;;;;;;23.31;28.38;96323.34;5471163;26;20234;-70
2024/04/09 01:12:36;;;;;;;13.87;3.33;;;;;;;23.27;29.50;96321.44;5475696;26;20600;-71
2024/04/09 01:15:02;;;;;;;18.77;3.80;;;;;;;23.31;30.57;96322.53;5477948;26;20325;-68
2024/04/09 01:17:28;;;;;;;15.07;3.53;;;;;;;23.33;30.62;96330.28;5473969;26;20338;-69
2024/04/09 01:19:54;;;;;;;21.13;4.33;;;;;;;23.33;30.61;96331.09;5475168;26;20750;-70
2024/04/09 01:22:20;;;;;;;15.30;3.40;;;;;;;23.33;30.86;96324.94;5471189;26;20596;-70
2024/04/09 01:24:50;;;;;;;18.47;3.60;;;;;;;23.33;30.76;96328.41;5465990;26;20455;-70
2024/04/09 01:27:16;;;;;;;17.10;4.13;;;;;;;23.29;31.39;96319.31;5481553;26;21344;-71
2024/04/09 01:29:43;;;;;;;18.60;3.40;;;;;;;23.29;31.13;96328.13;5474668;26;20467;-71
2024/04/09 01:32:08;;;;;;;21.57;3.17;;;;;;;23.27;31.31;96324.91;5468923;26;20366;-71
2024/04/09 01:34:35;;;;;;;13.93;3.70;;;;;;;23.15;31.41;96327.72;5480647;26;21007;-71
2024/04/09 01:37:04;;;;;;;17.30;3.57;;;;;;;22.99;31.37;96334.00;5478784;26;20597;-69
2024/04/09 01:39:30;;;;;;;12.57;3.67;;;;;;;22.95;30.95;96340.88;5480889;26;20537;-69
2024/04/09 01:41:55;;;;;;;25.27;3.70;;;;;;;23.03;31.19;96337.78;5480314;26;21084;-71
2024/04/09 01:44:21;;;;;;;17.13;3.83;;;;;;;23.10;31.78;96327.66;5477171;26;20455;-70
2024/04/09 01:46:48;;;;;;;15.53;3.40;;;;;;;22.90;32.42;96340.84;5466237;26;20242;-71
2024/04/09 01:49:18;;;;;;;17.03;3.80;;;;;;;22.90;32.28;96343.53;5473014;26;20235;-71
2024/04/09 01:51:44;;;;;;;25.10;3.23;;;;;;;22.89;32.14;96339.25;5466913;26;20521;-69
2024/04/09 01:54:10;;;;;;;16.60;3.43;;;;;;;22.85;32.32;96337.06;5474220;26;20995;-71
2024/04/09 01:56:35;;;;;;;14.33;3.20;;;;;;;22.83;32.40;96331.16;5479522;26;20562;-70
2024/04/09 01:59:01;;;;;;;11.20;3.10;;;;;;;22.86;31.44;96330.66;5480385;26;20276;-71
2024/04/09 02:01:26;;;;;;;18.37;3.10;;;;;;;22.92;31.81;96338.75;5480474;26;20302;-70
2024/04/09 02:03:56;;;;;;;16.73;3.47;;;;;;;22.72;31.95;96334.78;5478757;26;20896;-73
2024/04/09 02:06:22;;;;;;;21.00;3.87;;;;;;;22.58;32.14;96346.91;5467068;26;20285;-71
2024/04/09 02:08:47;;;;;;;18.93;3.70;;;;;;;22.66;32.26;96343.81;5471542;26;21075;-69
2024/04/09 02:11:13;;;;;;;19.77;3.60;;;;;;;22.69;31.09;96343.31;5474977;26;20531;-70
2024/04/09 02:13:40;;;;;;;19.10;3.67;;;;;;;22.81;32.11;96356.53;5476631;26;20296;-70
2024/04/09 02:16:08;;;;;;;11.93;3.90;;;;;;;22.74;32.76;96359.38;5477491;26;20655;-69
2024/04/09 02:18:35;;;;;;;15.37;3.70;;;;;;;22.65;33.03;96363.56;5480067;26;20455;-70
2024/04/09 02:21:01;;;;;;;14.37;3.70;;;;;;;22.72;32.71;96358.81;5478318;26;20515;-71
2024/04/09 02:23:26;;;;;;;10.60;3.20;;;;;;;22.76;32.80;96351.94;5464670;26;20548;-71
2024/04/09 02:25:52;;;;;;;15.83;3.60;;;;;;;22.82;33.23;96350.13;5476051;26;20295;-71
2024/04/09 02:28:17;;;;;;;19.17;4.10;;;;;;;22.83;33.32;96354.41;5462822;26;20286;-72
2024/04/09 02:30:43;;;;;;;18.30;3.50;;;;;;;22.77;33.48;96345.53;5480629;26;20265;-70
2024/04/09 02:33:08;;;;;;;14.63;3.87;;;;;;;22.57;32.83;96355.97;5476092;26;20270;-68
2024/04/09 02:35:34;;;;;;;14.77;4.00;;;;;;;22.63;32.78;96353.13;5466433;26;20291;-71
2024/04/09 02:38:00;;;;;;;20.57;3.80;;;;;;;22.66;32.79;96357.19;5477233;26;20239;-71
2024/04/09 02:40:25;;;;;;;18.83;4.00;;;;;;;22.72;32.51;96358.03;5463050;26;20231;-72
2024/04/09 02:42:51;;;;;;;21.67;4.20;;;;;;;22.66;33.21;96351.84;5480102;26;20250;-72
2024/04/09 02:45:20;;;;;;;28.83;3.60;;;;;;;22.70;33.58;96352.94;5467494;26;20234;-71
2024/04/09 02:47:45;;;;;;;13.00;3.73;;;;;;;22.73;33.79;96348.97;5481898;26;20460;-70
2024/04/09 02:50:11;;;;;;;21.80;4.40;;;;;;;22.70;33.51;96356.41;5471131;26;20529;-71
2024/04/09 02:52:36;;;;;;;22.40;4.27;;;;;;;22.71;33.22;96357.22;5478208;26;20289;-71
2024/04/09 02:55:02;;;;;;;29.47;4.60;;;;;;;22.70;31.95;96359.09;5482556;26;20337;-69
2024/04/09 02:57:28;;;;;;;27.37;4.43;;;;;;;22.76;31.13;96356.47;5468147;26;20244;-71
2024/04/09 02:59:53;;;;;;;35.27;5.90;;;;;;;22.77;30.73;96356.22;5479342;26;20574;-70
2024/04/09 03:02:19;;;;;;;30.10;4.53;;;;;;;22.78;30.81;96352.50;5456197;26;20448;-70
2024/04/09 03:04:47;;;;;;;40.03;5.30;;;;;;;22.86;31.17;96349.38;5473824;26;20238;-68
2024/04/09 03:07:13;;;;;;;27.07;4.90;;;;;;;22.90;31.11;96348.88;5461087;26;20278;-71
2024/04/09 03:09:38;;;;;;;19.17;3.93;;;;;;;22.85;33.76;96358.44;5474968;26;20451;-69
2024/04/09 03:12:05;;;;;;;14.13;4.17;;;;;;;22.84;34.69;96358.69;5469592;26;20234;-69
2024/04/09 03:14:31;;;;;;;24.97;4.43;;;;;;;22.73;34.72;96355.09;5466846;26;20267;-70
2024/04/09 03:16:56;;;;;;;24.40;4.07;;;;;;;22.68;33.72;96363.06;5476875;26;20451;-71
2024/04/09 03:19:21;;;;;;;23.83;4.10;;;;;;;22.70;32.35;96375.13;5467419;26;21112;-71
2024/04/09 03:21:47;;;;;;;41.20;5.20;;;;;;;22.72;33.32;96392.75;5480252;26;21076;-70
2024/04/09 03:24:12;;;;;;;23.60;5.30;;;;;;;22.73;32.69;96397.84;5458650;26;21088;-70
2024/04/09 03:26:38;;;;;;;22.00;5.53;;;;;;;22.71;31.99;96410.63;5461056;26;20332;-70
2024/04/09 03:29:03;;;;;;;32.87;4.63;;;;;;;22.68;32.73;96403.91;5468957;26;20251;-69
2024/04/09 03:31:29;;;;;;;33.63;4.87;;;;;;;22.65;32.74;96380.38;5458230;26;20231;-70
2024/04/09 03:33:55;;;;;;;24.63;4.20;;;;;;;22.72;32.95;96387.41;5466810;26;20238;-70
2024/04/09 03:36:21;;;;;;;26.00;4.00;;;;;;;22.76;32.57;96394.66;5466886;26;20336;-70
2024/04/09 03:38:46;;;;;;;38.37;5.27;;;;;;;22.77;31.27;96390.94;5465279;26;21060;-71
2024/04/09 03:41:11;;;;;;;48.07;5.47;;;;;;;22.80;31.30;96392.28;5476428;26;20452;-72
2024/04/09 03:43:37;;;;;;;28.10;5.10;;;;;;;22.85;31.90;96387.03;5481848;26;20323;-70
2024/04/09 03:46:06;;;;;;;34.23;5.03;;;;;;;22.88;30.52;96389.16;5461951;26;20331;-70
2024/04/09 03:48:39;;;;;;;28.83;5.40;;;;;;;22.91;33.12;96388.66;5480631;26;20747;-69
2024/04/09 03:51:04;;;;;;;38.50;4.90;;;;;;;;;;5458634;26;20527;-69
2024/04/09 03:53:30;;;;;;;31.03;5.57;;;;;;;22.94;30.75;96398.03;5468064;26;20471;-72
2024/04/09 03:55:59;;;;;;;27.03;4.70;;;;;;;22.98;31.14;96404.50;5479952;26;20253;-70
2024/04/09 03:58:29;;;;;;;27.47;6.30;;;;;;;22.98;30.80;96404.50;5466345;26;20269;-70
2024/04/09 04:01:02;;;;;;;26.40;5.17;;;;;;;22.95;31.63;96415.69;5460694;26;20471;-71
2024/04/09 04:03:28;;;;;;;39.40;6.10;;;;;;;22.92;32.46;96417.00;5464143;26;20872;-70
2024/04/09 04:05:58;;;;;;;27.33;5.57;;;;;;;22.90;32.91;96421.00;5460863;26;21028;-70
2024/04/09 04:08:28;;;;;;;37.50;4.93;;;;;;;22.82;33.29;96433.72;5479036;26;20864;-71
2024/04/09 04:10:54;;;;;;;31.73;5.50;;;;;;;22.76;33.74;96437.41;5479622;26;20636;-70
2024/04/09 04:13:23;;;;;;;22.40;5.20;;;;;;;22.73;33.88;96451.25;5388667;26;20476;-70
2024/04/09 04:15:59;;;;;;;30.43;4.63;;;;;;;22.51;35.12;96446.72;5476488;26;20580;-69
2024/04/09 04:18:25;;;;;;;24.67;5.03;;;;;;;22.47;35.97;96448.25;5446669;26;20465;-71
2024/04/09 04:20:54;;;;;;;28.43;4.50;;;;;;;22.41;36.11;96459.94;5468070;26;20499;-70
2024/04/09 04:23:19;;;;;;;31.07;5.27;;;;;;;22.32;36.00;96472.84;5477865;26;20285;-73
2024/04/09 04:26:02;;;;;;;27.03;4.80;;;;;;;22.29;35.99;96472.53;5467716;26;20463;-71
2024/04/09 04:28:31;;;;;;;30.40;5.50;;;;;;;22.28;35.90;96470.91;5475073;26;20397;-72
2024/04/09 04:30:57;;;;;;;24.60;4.67;;;;;;;22.22;35.54;96476.16;5470005;26;20463;-71
2024/04/09 04:33:23;;;;;;;24.63;5.30;;;;;;;22.22;35.83;96481.50;5461192;26;20575;-71
2024/04/09 04:35:48;;;;;;;28.30;5.73;;;;;;;22.14;36.11;96476.59;5466612;26;20307;-71
2024/04/09 04:38:14;;;;;;;30.07;5.93;;;;;;;22.14;35.77;96487.28;5460175;26;20228;-73
2024/04/09 04:40:39;;;;;;;34.00;5.17;;;;;;;22.08;35.78;96498.91;5460951;26;20238;-71
2024/04/09 04:43:05;;;;;;;31.27;5.70;;;;;;;22.00;35.80;96501.97;5452306;26;20235;-70
2024/04/09 04:45:31;;;;;;;33.70;5.80;;;;;;;21.98;36.10;96506.75;5461317;26;20327;-71
2024/04/09 04:47:59;;;;;;;32.77;4.90;;;;;;;22.00;36.49;96518.00;5477679;26;20740;-71
2024/04/09 04:50:25;;;;;;;22.17;5.10;;;;;;;22.02;36.39;96515.88;5458563;26;20479;-72
2024/04/09 04:52:50;;;;;;;32.73;5.80;;;;;;;22.00;36.38;96518.00;5479120;26;20463;-71
2024/04/09 04:55:16;;;;;;;32.77;5.70;;;;;;;21.90;36.55;96524.78;5459377;26;20266;-72
2024/04/09 04:57:41;;;;;;;29.90;4.90;;;;;;;21.87;36.22;96535.09;5476624;26;20273;-71
2024/04/09 05:00:09;;;;;;;29.47;5.13;;;;;;;21.84;36.84;96546.28;5466210;26;20617;-72
2024/04/09 05:02:37;;;;;;;35.80;5.53;;;;;;;21.69;37.20;96562.78;5461620;26;20246;-72
2024/04/09 05:05:04;;;;;;;30.80;5.43;;;;;;;21.72;36.99;96564.97;5459052;26;20519;-71
2024/04/09 05:07:33;;;;;;;32.00;5.53;;;;;;;21.69;36.92;96560.94;5472507;26;20528;-70
2024/04/09 05:09:59;;;;;;;35.97;5.90;;;;;;;21.66;37.62;96556.09;5478428;26;20570;-71
2024/04/09 05:12:25;;;;;;;35.10;5.50;;;;;;;21.53;37.55;96551.84;5480727;26;20475;-71
2024/04/09 05:14:50;;;;;;;23.53;5.13;;;;;;;21.63;37.36;96546.72;5460757;26;20515;-70
2024/04/09 05:17:16;;;;;;;30.67;5.00;;;;;;;21.71;36.75;96553.53;5473969;26;20239;-73
2024/04/09 05:19:42;;;;;;;23.67;4.40;;;;;;;21.81;36.88;96562.75;5456604;26;20326;-72
2024/04/09 05:22:09;;;;;;;29.00;4.73;;;;;;;21.88;36.91;96574.88;5476229;26;20238;-69
2024/04/09 05:24:38;;;;;;;33.10;4.27;;;;;;;21.97;36.74;96590.47;5459085;26;20239;-68
2024/04/09 05:27:04;;;;;;;36.47;3.90;;;;;;;22.03;36.83;96597.53;5451926;26;21122;-69
2024/04/09 05:29:30;;;;;;;28.43;4.43;;;;;;;22.06;36.82;96602.38;5473994;26;20463;-70
2024/04/09 05:31:55;;;;;;;25.43;4.33;;;;;;;22.09;37.25;96612.56;5464873;26;20569;-69
2024/04/09 05:34:21;;;;;;;18.70;3.47;;;;;;;22.13;37.13;96619.03;5456321;26;20283;-71
2024/04/09 05:36:46;;;;;;;21.07;3.53;;;;;;;22.13;36.92;96620.88;5458461;26;20331;-69
2024/04/09 05:39:12;;;;;;;16.10;3.40;;;;;;;22.20;36.96;96629.56;5471737;26;20261;-69
2024/04/09 05:41:37;;;;;;;23.67;3.37;;;;;;;22.19;37.50;96635.94;5476022;26;20242;-71
2024/04/09 05:44:03;;;;;;;16.43;3.40;;;;;;;22.25;38.00;96638.47;5475936;26;20393;-70
2024/04/09 05:46:28;;;;;;;22.53;3.00;;;;;;;22.23;37.91;96635.22;5472018;26;20353;-70
2024/04/09 05:48:54;;;;;;;16.07;2.90;;;;;;;22.30;37.90;96639.63;5473395;26;20389;-70
2024/04/09 05:51:19;;;;;;;14.17;3.00;;;;;;;22.35;38.00;96637.84;5476677;26;20242;-71
2024/04/09 05:53:45;;;;;;;13.43;2.80;;;;;;;22.40;37.75;96643.25;5479554;26;20238;-71
2024/04/09 05:56:10;;;;;;;22.13;3.40;;;;;;;22.44;38.19;96646.25;5454168;26;20239;-71
2024/04/09 05:58:35;;;;;;;23.20;2.83;;;;;;;22.41;38.28;96652.09;5465478;26;20261;-70
2024/04/09 06:01:01;;;;;;;16.77;3.20;;;;;;;22.44;38.29;96656.16;5462267;26;20311;-71
2024/04/09 06:03:29;;;;;;;14.70;2.80;;;;;;;22.52;38.35;96664.56;5474534;26;20254;-71
2024/04/09 06:05:57;;;;;;;12.17;2.30;;;;;;;22.58;38.49;96672.63;5468304;26;20238;-70
2024/04/09 06:08:23;;;;;;;8.80;2.40;;;;;;;22.62;38.71;96679.13;5461621;26;20575;-73
2024/04/09 06:10:48;;;;;;;16.70;2.70;;;;;;;22.67;38.42;96671.22;5482288;26;20475;-69
2024/04/09 06:13:14;;;;;;;23.50;2.57;;;;;;;22.68;38.50;96670.16;5463821;26;20591;-70
2024/04/09 06:15:39;;;;;;;12.63;2.57;;;;;;;22.68;38.38;96686.97;5481272;26;20277;-71
2024/04/09 06:18:04;;;;;;;10.87;1.80;;;;;;;22.71;38.02;96688.34;5468959;26;20277;-72
2024/04/09 06:20:30;;;;;;;11.23;2.50;;;;;;;22.76;37.84;96685.75;5479171;26;20315;-71
2024/04/09 06:22:55;;;;;;;17.07;2.43;;;;;;;22.76;38.35;96679.59;5473977;26;20346;-71
2024/04/09 06:25:21;;;;;;;15.23;2.50;;;;;;;22.86;38.27;96685.13;5466346;26;20276;-71
2024/04/09 06:27:47;;;;;;;14.97;2.37;;;;;;;22.91;38.33;96687.84;5476348;26;20235;-73
2024/04/09 06:30:12;;;;;;;15.30;2.23;;;;;;;22.97;38.17;96676.19;5483335;26;21021;-71
2024/04/09 06:32:39;;;;;;;18.93;2.40;;;;;;;23.01;37.94;96697.88;5491060;26;20303;-73
2024/04/09 06:35:06;;;;;;;14.27;2.53;;;;;;;23.08;38.10;96706.53;5484664;26;20270;-71
2024/04/09 06:37:31;;;;;;;20.07;2.33;;;;;;;23.15;38.31;96712.53;5491804;26;20531;-72
2024/04/09 06:39:57;;;;;;;8.10;2.00;;;;;;;23.26;38.81;96710.81;5482078;26;20455;-72
2024/04/09 06:42:23;;;;;;;11.37;2.23;;;;;;;23.35;38.22;96707.75;5473630;26;20359;-72
2024/04/09 06:44:48;;;;;;;7.53;2.10;;;;;;;23.47;37.83;96711.13;5474441;26;20769;-70
2024/04/09 06:47:13;;;;;;;13.17;2.30;;;;;;;23.55;37.36;96715.22;5513556;26;20272;-71
2024/04/09 06:49:42;;;;;;;11.53;2.77;;;;;;;23.64;37.51;96721.75;5466451;26;20341;-71
2024/04/09 06:52:08;;;;;;;14.63;2.50;;;;;;;23.67;36.83;96720.44;5478503;26;20234;-71
2024/04/09 06:54:33;;;;;;;11.33;2.20;;;;;;;23.79;37.00;96723.81;5474759;26;20555;-71
2024/04/09 06:56:59;;;;;;;8.43;2.13;;;;;;;23.84;36.97;96725.72;5425322;26;20234;-71
2024/04/09 06:59:24;;;;;;;11.43;1.93;;;;;;;23.90;36.93;96730.09;5471152;26;20247;-72
2024/04/09 07:01:51;;;;;;;7.63;2.37;;;;;;;23.96;37.17;96734.47;5479003;26;20249;-71
2024/04/09 07:04:16;;;;;;;11.80;1.70;;;;;;;24.10;37.12;96739.44;5486041;26;20235;-72
2024/04/09 07:06:42;;;;;;;8.17;2.10;;;;;;;24.21;36.78;96733.97;5472394;26;20574;-71
2024/04/09 07:09:07;;;;;;;8.07;2.10;;;;;;;24.24;37.02;96751.38;5475600;26;20270;-71
2024/04/09 07:11:32;;;;;;;6.07;2.03;;;;;;;24.19;37.27;96759.38;5470376;26;20274;-71
2024/04/09 07:13:58;;;;;;;8.17;1.93;;;;;;;24.15;37.09;96755.56;5485547;26;20723;-71
2024/04/09 07:16:23;;;;;;;8.23;2.57;;;;;;;24.02;38.04;96757.56;5472914;26;20727;-71
2024/04/09 07:18:49;;;;;;;8.27;2.40;;;;;;;23.90;38.07;96767.56;5481280;26;20261;-71
2024/04/09 07:21:14;;;;;;;9.17;1.90;;;;;;;23.86;38.02;96756.56;5479270;26;20226;-70
2024/04/09 07:23:39;;;;;;;12.13;2.10;;;;;;;23.70;38.71;96763.53;5471373;26;20251;-71
2024/04/09 07:26:05;;;;;;;8.83;2.83;;;;;;;23.55;39.08;96766.03;5458857;26;21140;-71
2024/04/09 07:28:31;;;;;;;11.60;2.13;;;;;;;23.36;39.47;96774.31;5477995;26;20238;-71
2024/04/09 07:30:56;;;;;;;6.93;1.60;;;;;;;23.17;39.49;96785.25;5475188;26;20235;-71
2024/04/09 07:33:22;;;;;;;13.03;2.00;;;;;;;23.09;39.90;96804.34;5473121;26;20292;-72
2024/04/09 07:35:47;;;;;;;6.37;1.63;;;;;;;23.02;40.66;96811.72;5475253;26;20279;-72
2024/04/09 07:38:12;;;;;;;6.23;2.27;;;;;;;22.84;40.98;96808.22;5472492;26;20322;-72
2024/04/09 07:40:39;;;;;;;9.80;2.03;;;;;;;22.77;41.05;96820.09;5482282;26;20249;-71
2024/04/09 07:43:05;;;;;;;17.87;2.63;;;;;;;22.65;41.58;96828.97;5482725;26;20277;-71
2024/04/09 07:45:31;;;;;;;11.73;1.80;;;;;;;22.54;41.84;96844.03;5480701;26;20464;-71
2024/04/09 07:47:56;;;;;;;10.43;2.47;;;;;;;22.47;42.28;96847.88;5485009;26;20290;-70
2024/04/09 07:50:22;;;;;;;8.87;2.80;;;;;;;22.30;42.80;96853.13;5468775;26;20280;-72
2024/04/09 07:52:47;;;;;;;5.23;1.63;;;;;;;22.08;43.21;96859.06;5475708;26;20236;-71
2024/04/09 07:55:13;;;;;;;7.40;1.40;;;;;;;21.85;43.45;96881.25;5474472;26;20702;-72
2024/04/09 07:57:45;;;;;;;11.13;1.67;;;;;;;21.75;44.27;96897.84;5484509;26;20272;-71
2024/04/09 08:00:20;;;;;;;6.53;1.10;;;;;;;21.66;44.12;96900.03;5476987;26;20297;-71
2024/04/09 08:02:46;;;;;;;2.50;0.80;;;;;;;21.40;43.76;96925.25;5470120;26;20861;-72
2024/04/09 08:05:12;;;;;;;21.13;1.50;;;;;;;21.06;43.78;96936.38;5470233;26;20523;-71
2024/04/09 08:07:39;;;;;;;9.77;1.30;;;;;;;20.88;43.72;96945.22;5468170;26;20522;-70
2024/04/09 08:10:18;;;;;;;3.43;0.80;;;;;;;20.48;43.38;96957.13;5471509;26;20515;-71
2024/04/09 08:12:54;;;;;;;6.63;1.00;;;;;;;20.25;43.09;96976.41;5479275;26;20471;-71
2024/04/09 08:15:23;;;;;;;1.87;0.60;;;;;;;19.91;42.20;96983.88;5481150;26;20467;-71
2024/04/09 08:17:49;;;;;;;1.30;0.60;;;;;;;19.76;41.70;96998.28;5483484;26;20976;-71
2024/04/09 08:20:15;;;;;;;5.23;0.60;;;;;;;19.53;42.43;96998.84;5482604;26;20504;-71
2024/04/09 08:22:41;;;;;;;4.70;0.53;;;;;;;19.57;41.76;97000.06;5468304;26;20348;-72
2024/04/09 08:25:10;;;;;;;5.60;0.70;;;;;;;19.43;41.10;97009.94;5476484;26;20455;-71
2024/04/09 08:27:40;;;;;;;4.87;0.60;;;;;;;19.15;40.86;97029.69;5460138;26;20520;-71
2024/04/09 08:30:12;;;;;;;3.20;0.80;;;;;;;19.05;40.99;97033.84;5474309;26;20467;-71
2024/04/09 08:32:39;;;;;;;1.27;0.60;;;;;;;18.73;41.65;97032.69;5476718;26;20796;-71
2024/04/09 08:35:05;;;;;;;1.03;0.60;;;;;;;18.82;41.74;97035.13;5475358;26;20459;-71
2024/04/09 08:37:30;;;;;;;1.00;0.50;;;;;;;18.68;41.78;97061.72;5473375;26;20523;-71
2024/04/09 08:39:56;;;;;;;1.53;0.60;;;;;;;18.61;41.64;97082.13;5481486;26;20583;-71
2024/04/09 08:42:26;;;;;;;0.80;0.50;;;;;;;18.61;42.14;97073.34;5484641;26;20333;-71
2024/04/09 08:44:55;;;;;;;11.50;0.60;;;;;;;18.41;42.34;97103.38;5483045;26;20234;-71
2024/04/09 08:47:21;;;;;;;3.30;0.60;;;;;;;18.41;42.47;97098.88;5469981;26;20506;-71
2024/04/09 08:49:56;;;;;;;0.80;0.40;;;;;;;18.23;42.90;97096.84;5473911;26;20465;-72
2024/04/09 08:52:22;;;;;;;1.57;0.60;;;;;;;18.11;43.38;97122.34;5481419;26;21093;-71
2024/04/09 08:54:48;;;;;;;1.40;0.50;;;;;;;18.11;43.47;97111.75;5479664;26;20456;-71
2024/04/09 08:57:14;;;;;;;0.90;0.50;;;;;;;17.97;43.42;97124.16;5470645;26;20551;-70
2024/04/09 08:59:40;;;;;;;3.83;0.63;;;;;;;17.92;43.12;97137.19;5484847;26;20291;-71
2024/04/09 09:02:15;;;;;;;2.60;0.57;;;;;;;17.89;43.32;97127.81;5485423;26;20277;-71
2024/04/09 09:04:41;;;;;;;2.80;0.60;;;;;;;18.00;43.25;97122.94;5480180;26;20486;-71
2024/04/09 09:07:18;;;;;;;1.30;0.50;;;;;;;17.92;42.69;97127.38;5478191;26;20533;-73
2024/04/09 09:09:44;;;;;;;7.10;0.60;;;;;;;17.70;41.69;97128.56;5471000;26;20639;-73
2024/04/09 09:12:10;;;;;;;3.00;0.70;;;;;;;17.65;41.67;97143.19;5484017;26;20523;-72
2024/04/09 09:14:36;;;;;;;1.73;0.57;;;;;;;17.61;41.57;97135.84;5483969;26;20464;-73
2024/04/09 09:17:03;;;;;;;5.37;0.93;;;;;;;17.45;41.65;97143.13;5459679;26;20266;-72
2024/04/09 09:19:33;;;;;;;1.20;0.60;;;;;;;17.46;41.28;97146.63;5478307;26;21141;-70
2024/04/09 09:22:09;;;;;;;1.10;0.60;;;;;;;17.39;41.06;97143.13;5482013;26;20936;-72
2024/04/09 09:24:35;;;;;;;3.83;0.70;;;;;;;17.20;41.13;97134.88;5473883;26;20520;-71
2024/04/09 09:27:05;;;;;;;5.53;0.60;;;;;;;17.26;41.36;97139.41;5480756;26;21023;-72
2024/04/09 09:29:31;;;;;;;1.33;0.70;;;;;;;17.14;41.30;97156.84;5456825;26;21091;-71
2024/04/09 09:32:01;;;;;;;0.80;0.50;;;;;;;17.15;41.63;97179.66;5481126;26;20456;-72
2024/04/09 09:34:35;;;;;;;0.90;0.50;;;;;;;16.89;41.44;97170.50;5480631;26;20581;-72
2024/04/09 09:37:01;;;;;;;1.20;0.50;;;;;;;17.08;41.51;97194.69;5485363;26;20805;-74
2024/04/09 09:39:27;;;;;;;1.60;0.60;;;;;;;17.02;40.60;97191.00;5483779;26;20583;-72
2024/04/09 09:41:54;;;;;;;2.73;0.60;;;;;;;16.94;41.16;97199.91;5478886;26;20307;-72
2024/04/09 09:44:21;;;;;;;0.90;0.60;;;;;;;17.04;40.84;97210.97;5464313;26;20885;-71
2024/04/09 09:46:48;;;;;;;2.20;0.60;;;;;;;17.13;40.94;97240.75;5456367;26;20855;-72
2024/04/09 09:49:14;;;;;;;1.40;0.60;;;;;;;17.04;40.72;97250.66;5473452;26;20520;-71
2024/04/09 09:51:39;;;;;;;1.20;0.63;;;;;;;17.01;40.62;97247.59;5438020;26;20487;-72
2024/04/09 09:54:06;;;;;;;1.53;0.57;;;;;;;16.93;40.64;97248.53;5438339;26;20551;-71
2024/04/09 09:56:32;;;;;;;1.07;0.60;;;;;;;16.91;40.96;97252.38;5479585;26;20250;-72
2024/04/09 09:58:59;;;;;;;4.20;0.70;;;;;;;17.04;41.02;97265.75;5481208;26;20518;-72
2024/04/09 10:01:24;;;;;;;5.70;0.60;;;;;;;17.09;41.19;97286.34;5481778;26;20456;-71
2024/04/09 10:03:52;;;;;;;1.33;0.50;;;;;;;17.16;40.66;97288.03;5402851;26;20567;-72
2024/04/09 10:06:18;;;;;;;1.40;0.60;;;;;;;17.24;40.81;97292.38;5477807;26;20246;-72
2024/04/09 10:08:43;;;;;;;1.43;0.60;;;;;;;17.26;40.52;97293.00;5469272;26;20548;-71
2024/04/09 10:11:11;;;;;;;1.33;0.63;;;;;;;17.13;40.76;97299.00;5475312;26;20826;-70
2024/04/09 10:13:43;;;;;;;1.10;0.60;;;;;;;17.05;40.77;97307.09;5461716;26;20285;-70
2024/04/09 10:16:15;;;;;;;2.27;0.80;;;;;;;17.13;41.38;97303.50;5474487;26;20983;-71
2024/04/09 10:18:41;;;;;;;1.00;0.60;;;;;;;17.24;40.91;97312.72;5467781;26;20517;-72
2024/04/09 10:21:07;;;;;;;1.73;0.60;;;;;;;17.31;41.04;97309.13;5482650;26;20463;-73
2024/04/09 10:23:36;;;;;;;1.20;0.57;;;;;;;17.34;40.63;97321.16;5478575;26;21125;-72
2024/04/09 10:26:03;;;;;;;0.90;0.57;;;;;;;17.34;39.94;97324.63;5468757;26;20261;-73
2024/04/09 10:28:30;;;;;;;1.03;0.50;;;;;;;17.25;40.24;97311.72;5479600;26;20999;-72
2024/04/09 10:31:00;;;;;;;1.10;0.50;;;;;;;17.31;40.20;97321.56;5468278;26;20509;-71
2024/04/09 10:33:35;;;;;;;3.53;0.57;;;;;;;17.17;39.59;97297.63;5473179;26;20463;-72
2024/04/09 10:36:06;;;;;;;2.33;0.50;;;;;;;17.10;39.61;97311.81;5461316;26;20451;-72
2024/04/09 10:38:33;;;;;;;0.80;0.50;;;;;;;17.10;39.80;97314.47;5461962;26;20510;-71
2024/04/09 10:41:00;;;;;;;3.47;0.70;;;;;;;17.02;39.76;97310.13;5473703;26;20516;-71
2024/04/09 10:43:29;;;;;;;1.07;0.50;;;;;;;16.97;40.03;97321.28;5473300;26;20522;-71
2024/04/09 10:45:56;;;;;;;1.37;0.50;;;;;;;16.96;40.09;97319.66;5479278;26;20467;-71
2024/04/09 10:48:22;;;;;;;0.80;0.50;;;;;;;17.00;39.93;97330.66;5484652;26;20558;-72
2024/04/09 10:50:48;;;;;;;0.80;0.50;;;;;;;17.02;40.19;97323.38;5470676;26;20568;-72
2024/04/09 10:53:14;;;;;;;2.23;0.50;;;;;;;17.01;40.25;97325.19;5477245;26;21006;-71
2024/04/09 10:55:39;;;;;;;2.40;0.60;;;;;;;17.09;40.21;97344.59;5474931;26;20234;-73
2024/04/09 10:58:05;;;;;;;1.00;0.50;;;;;;;17.01;39.66;97354.28;5485735;26;20821;-72
2024/04/09 11:00:31;;;;;;;0.90;0.50;;;;;;;16.96;39.91;97345.28;5478700;26;20230;-71
2024/04/09 11:02:56;;;;;;;1.43;0.50;;;;;;;16.89;39.67;97340.75;5467159;26;20239;-72
2024/04/09 11:05:22;;;;;;;1.20;0.60;;;;;;;16.83;40.30;97370.59;5479187;26;20234;-72
2024/04/09 11:07:48;;;;;;;1.37;0.50;;;;;;;16.88;40.39;97370.06;5469491;26;20516;-73
2024/04/09 11:10:15;;;;;;;3.53;0.77;;;;;;;16.95;40.86;97368.31;5475612;26;20507;-72
2024/04/09 11:12:46;;;;;;;3.10;0.60;;;;;;;17.02;40.64;97378.97;5444969;26;20239;-72
2024/04/09 11:15:13;;;;;;;1.47;0.60;;;;;;;17.03;40.04;97386.69;5483219;26;20459;-72
2024/04/09 11:17:39;;;;;;;0.90;0.60;;;;;;;17.11;40.64;97392.91;5465536;26;20464;-71
2024/04/09 11:20:14;;;;;;;1.07;0.50;;;;;;;17.18;40.36;97396.41;5485071;26;20455;-72
2024/04/09 11:22:42;;;;;;;2.07;0.80;;;;;;;17.18;40.18;97401.72;5473257;26;20468;-72
2024/04/09 11:25:12;;;;;;;1.70;0.60;;;;;;;17.07;39.87;97404.88;5465813;26;20460;-71
2024/04/09 11:27:48;;;;;;;1.50;0.53;;;;;;;16.98;39.38;97418.25;5484009;26;20459;-72